Terminal Aerodrome Forecast
Issued by NWS

Home | Current Version | Previous Version | Text Only | Print | Product List | Glossary On
Versions: 1 2 3 4 5 6 7 8 9 10 11 12 13 14 15 16 17
000
FTAK31 PANC 301641 AAB
TAFAVD
TAF AMD
PAVD 301641Z 3017/3112 VRB04KT 2SM BR VCSH FEW001 OVC010
      TEMPO 3018/3020 5SM BR SCT004 BKN012
     FM302200 25008KT P6SM VCSH OVC020
      AMD LTD TO CLD VIS AND WIND=

USA.gov is the U.S. government's official web portal to all federal, state and local government web resources and services.